Time;durP1;ratioP1;P1;durP2;ratioP2;P2;SDS_P1;SDS_P2;PMS_P1;PMS_P2;Temp;Humidity;BMP_temperature;BMP_pressure;BME280_temperature;BME280_humidity;BME280_pressure;Samples;Min_cycle;Max_cycle;Signal;HPM_P1;HPM_P2
2023/08/22 00:02:25;;;;;;;16.23;14.88;;;16.10;83.20;;;;;;5093053;28;20579;-88
2023/08/22 00:04:51;;;;;;;17.50;16.30;;;16.10;83.20;;;;;;5092976;28;20788;-89
2023/08/22 00:07:16;;;;;;;17.52;16.33;;;16.10;83.70;;;;;;5094570;28;20200;-88
2023/08/22 00:09:43;;;;;;;16.45;15.25;;;16.00;84.20;;;;;;5093048;28;20178;-88
2023/08/22 00:12:09;;;;;;;17.02;15.48;;;15.90;84.40;;;;;;5092990;28;20170;-88
2023/08/22 00:14:34;;;;;;;16.17;14.80;;;15.90;84.40;;;;;;5094081;28;20285;-89
2023/08/22 00:17:00;;;;;;;15.20;13.95;;;16.00;84.40;;;;;;5092971;28;20179;-89
2023/08/22 00:19:25;;;;;;;15.57;14.02;;;15.90;84.40;;;;;;5092974;28;20174;-89
2023/08/22 00:21:51;;;;;;;15.50;14.30;;;15.90;84.50;;;;;;5093903;28;20199;-89
2023/08/22 00:24:16;;;;;;;14.93;13.93;;;15.90;84.40;;;;;;5093836;28;20631;-89
2023/08/22 00:26:42;;;;;;;15.10;13.95;;;15.90;84.40;;;;;;5092700;28;20175;-88
2023/08/22 00:29:07;;;;;;;15.50;14.35;;;16.00;84.40;;;;;;5093846;28;20171;-89
2023/08/22 00:31:33;;;;;;;15.05;13.95;;;16.00;84.40;;;;;;5093772;28;20223;-89
2023/08/22 00:34:01;;;;;;;15.82;14.40;;;16.00;84.50;;;;;;5092543;28;20171;-88
2023/08/22 00:36:27;;;;;;;16.13;14.20;;;16.00;84.40;;;;;;5092439;28;20692;-89
2023/08/22 00:38:52;;;;;;;28.77;26.55;;;16.00;84.50;;;;;;5092416;28;20171;-89
2023/08/22 00:41:18;;;;;;;32.42;30.17;;;16.00;84.50;;;;;;5092353;28;20352;-89
2023/08/22 00:43:43;;;;;;;35.85;33.13;;;16.00;84.50;;;;;;5092335;28;20167;-88
2023/08/22 00:46:09;;;;;;;15.35;14.15;;;16.00;84.50;;;;;;5092312;28;20190;-89
2023/08/22 00:48:35;;;;;;;16.30;15.00;;;16.00;84.60;;;;;;5093754;28;20248;-89
2023/08/22 00:51:01;;;;;;;15.30;14.15;;;16.00;84.70;;;;;;5092377;28;20550;-89
2023/08/22 00:53:27;;;;;;;14.68;13.48;;;15.90;84.80;;;;;;5091941;28;20180;-89
2023/08/22 00:55:53;;;;;;;13.95;12.75;;;16.00;84.80;;;;;;5093214;28;20279;-89
2023/08/22 00:58:18;;;;;;;14.10;13.10;;;15.90;84.70;;;;;;5092405;28;20645;-88
2023/08/22 01:00:44;;;;;;;14.85;13.57;;;15.90;84.70;;;;;;5092478;28;20203;-89
2023/08/22 01:03:10;;;;;;;15.50;14.10;;;15.90;84.70;;;;;;5093341;28;20237;-89
2023/08/22 01:05:42;;;;;;;14.93;13.93;;;15.90;84.90;;;;;;5092049;28;20190;-88
2023/08/22 01:08:17;;;;;;;14.38;13.27;;;15.90;84.90;;;;;;5093365;28;20558;-87
2023/08/22 01:10:48;;;;;;;15.20;12.90;;;16.00;84.80;;;;;;5092179;28;20174;-89
2023/08/22 01:13:20;;;;;;;13.40;12.20;;;15.90;84.70;;;;;;5092825;28;20171;-89
2023/08/22 01:15:47;;;;;;;14.00;12.80;;;15.90;85.00;;;;;;5091951;28;20696;-89
2023/08/22 01:18:15;;;;;;;27.52;25.13;;;15.90;85.00;;;;;;5093279;28;20202;-89
2023/08/22 01:20:41;;;;;;;29.33;27.25;;;15.90;85.00;;;;;;5091879;28;20205;-89
2023/08/22 01:23:07;;;;;;;32.45;30.10;;;15.90;85.00;;;;;;5093171;28;20171;-89
2023/08/22 01:25:33;;;;;;;14.93;13.70;;;15.90;85.00;;;;;;5091849;28;20191;-89
2023/08/22 01:28:22;;;;;;;15.48;14.05;;;15.90;84.90;;;;;;5093099;28;20268;-89
2023/08/22 01:31:10;;;;;;;15.38;14.27;;;15.90;84.90;;;;;;5091903;28;20174;-88
2023/08/22 01:33:53;;;;;;;15.95;14.65;;;16.00;84.90;;;;;;5091825;28;20208;-89
2023/08/22 01:36:20;;;;;;;15.30;14.15;;;16.00;85.30;;;;;;5093134;28;20197;-89
2023/08/22 01:38:47;;;;;;;15.88;14.40;;;15.90;85.50;;;;;;5091837;28;20547;-89
2023/08/22 01:41:14;;;;;;;15.55;14.15;;;16.00;85.70;;;;;;5093340;28;20227;-88
2023/08/22 01:43:42;;;;;;;15.07;13.85;;;16.00;85.80;;;;;;5091856;28;20171;-88
2023/08/22 01:46:08;;;;;;;14.43;13.27;;;16.00;85.80;;;;;;5091699;28;20692;-89
2023/08/22 01:48:34;;;;;;;15.55;13.90;;;16.00;85.90;;;;;;5092553;28;20175;-89
2023/08/22 01:51:00;;;;;;;15.70;14.20;;;16.00;86.10;;;;;;5092580;28;20265;-89
2023/08/22 01:53:26;;;;;;;15.07;13.57;;;16.00;86.30;;;;;;5091791;28;20213;-89
2023/08/22 01:55:52;;;;;;;15.75;14.38;;;15.90;86.40;;;;;;5091613;28;20249;-89
2023/08/22 01:58:17;;;;;;;15.88;14.50;;;15.90;86.40;;;;;;5091622;28;20175;-88
2023/08/22 02:00:43;;;;;;;14.68;13.57;;;15.90;86.80;;;;;;5093377;28;20674;-89
2023/08/22 02:03:10;;;;;;;14.00;12.73;;;15.90;87.10;;;;;;5092805;28;20208;-89
2023/08/22 02:05:36;;;;;;;13.13;12.00;;;15.90;87.00;;;;;;5093077;28;20194;-89
2023/08/22 02:08:01;;;;;;;13.55;12.18;;;15.90;86.70;;;;;;5095412;28;20171;-89
2023/08/22 02:10:27;;;;;;;13.00;11.73;;;15.90;86.00;;;;;;5095329;28;20209;-89
2023/08/22 02:12:52;;;;;;;11.85;10.88;;;16.10;85.90;;;;;;5095316;28;20219;-89
2023/08/22 02:15:20;;;;;;;12.13;11.15;;;16.10;85.80;;;;;;5096651;28;20190;-89
2023/08/22 02:17:46;;;;;;;12.02;11.10;;;16.20;85.80;;;;;;5095343;28;20167;-89
2023/08/22 02:20:12;;;;;;;15.98;11.90;;;16.20;85.80;;;;;;5096431;28;20186;-89
2023/08/22 02:22:41;;;;;;;12.15;11.00;;;16.20;85.40;;;;;;5095112;28;20198;-88
2023/08/22 02:25:08;;;;;;;12.02;11.07;;;16.20;85.40;;;;;;5095029;28;20222;-89
2023/08/22 02:27:33;;;;;;;12.90;11.85;;;16.20;85.40;;;;;;5096446;28;20163;-89
2023/08/22 02:29:59;;;;;;;12.70;11.70;;;16.30;85.40;;;;;;5096226;28;20542;-88
2023/08/22 02:32:25;;;;;;;13.32;11.88;;;16.30;85.30;;;;;;5094988;28;20650;-89
2023/08/22 02:34:50;;;;;;;14.40;11.68;;;16.30;85.00;;;;;;5094846;28;20228;-89
2023/08/22 02:37:16;;;;;;;13.00;11.60;;;16.30;85.00;;;;;;5094728;28;20269;-89
2023/08/22 02:39:41;;;;;;;13.18;11.95;;;16.30;85.00;;;;;;5095481;28;20182;-89
2023/08/22 02:42:07;;;;;;;13.50;12.40;;;16.30;85.10;;;;;;5094623;28;20293;-89
2023/08/22 02:44:32;;;;;;;13.23;12.23;;;16.30;85.10;;;;;;5094895;28;20186;-89
2023/08/22 02:46:58;;;;;;;12.90;12.00;;;16.30;85.10;;;;;;5094505;28;20171;-89
2023/08/22 02:49:23;;;;;;;13.85;12.73;;;16.40;85.10;;;;;;5095786;28;20256;-89
2023/08/22 02:51:49;;;;;;;14.27;13.00;;;16.30;85.10;;;;;;5094482;28;20265;-89
2023/08/22 02:54:14;;;;;;;14.48;13.15;;;16.40;85.20;;;;;;5094295;28;20166;-89
2023/08/22 02:56:40;;;;;;;15.18;13.90;;;16.40;85.10;;;;;;5094382;28;20183;-89
2023/08/22 02:59:05;;;;;;;13.70;12.60;;;16.40;85.10;;;;;;5094800;28;20183;-89
2023/08/22 03:01:31;;;;;;;13.95;12.98;;;16.50;85.20;;;;;;5094241;28;20202;-88
2023/08/22 03:03:56;;;;;;;13.88;12.82;;;16.50;85.20;;;;;;5094682;28;20178;-88
2023/08/22 03:06:22;;;;;;;14.05;12.93;;;16.40;85.40;;;;;;5094434;28;20202;-89
2023/08/22 03:08:48;;;;;;;13.70;12.70;;;16.40;85.50;;;;;;5095369;28;20166;-89
2023/08/22 03:11:14;;;;;;;13.43;12.32;;;16.40;85.60;;;;;;5094180;28;20553;-89
2023/08/22 03:13:40;;;;;;;13.43;12.18;;;16.40;85.60;;;;;;5094092;28;20174;-89
2023/08/22 03:16:06;;;;;;;12.57;11.60;;;16.30;85.60;;;;;;5094032;28;20199;-90
2023/08/22 03:18:32;;;;;;;12.73;11.73;;;16.30;85.60;;;;;;5093619;28;20244;-88
2023/08/22 03:20:57;;;;;;;13.25;12.00;;;16.30;85.60;;;;;;5093865;28;20758;-89
2023/08/22 03:23:23;;;;;;;12.77;11.77;;;16.30;85.60;;;;;;5093881;28;20253;-89
2023/08/22 03:25:59;;;;;;;12.80;11.48;;;16.30;85.50;;;;;;5093799;28;20195;-89
2023/08/22 03:28:26;;;;;;;12.60;11.70;;;16.30;85.60;;;;;;5094027;28;20642;-89
2023/08/22 03:30:56;;;;;;;11.88;10.98;;;16.30;85.70;;;;;;5093704;28;20186;-89
2023/08/22 03:33:22;;;;;;;11.95;10.98;;;16.30;86.20;;;;;;5093664;28;20219;-89
2023/08/22 03:35:49;;;;;;;11.25;10.38;;;16.30;86.60;;;;;;5094865;28;20277;-88
2023/08/22 03:38:15;;;;;;;11.88;10.65;;;16.20;86.60;;;;;;5094849;28;20175;-89
2023/08/22 03:40:40;;;;;;;12.80;10.77;;;16.20;86.80;;;;;;5093525;28;20673;-88
2023/08/22 03:43:06;;;;;;;11.60;10.77;;;16.30;86.90;;;;;;5093530;28;20175;-88
2023/08/22 03:45:31;;;;;;;10.98;10.23;;;16.30;86.80;;;;;;5093470;28;20195;-89
2023/08/22 03:48:03;;;;;;;12.10;11.10;;;16.30;86.60;;;;;;5094713;28;20193;-89
2023/08/22 03:50:28;;;;;;;12.90;11.65;;;16.30;86.40;;;;;;5094602;28;20153;-89
2023/08/22 03:52:54;;;;;;;12.15;11.18;;;16.30;86.40;;;;;;5093294;28;20174;-89
2023/08/22 03:55:19;;;;;;;11.63;10.88;;;16.40;86.30;;;;;;5093192;28;20206;-89
2023/08/22 03:57:45;;;;;;;11.77;10.85;;;16.30;86.30;;;;;;5094436;28;20169;-88
2023/08/22 04:00:11;;;;;;;11.57;10.60;;;16.20;86.60;;;;;;5093127;28;20167;-89
2023/08/22 04:02:36;;;;;;;10.90;10.00;;;16.20;86.70;;;;;;5093014;28;20682;-89
2023/08/22 04:05:02;;;;;;;10.35;9.63;;;16.20;86.80;;;;;;5092988;28;20199;-89
2023/08/22 04:07:27;;;;;;;10.88;9.98;;;16.20;87.00;;;;;;5093064;28;20181;-89
2023/08/22 04:09:53;;;;;;;10.73;9.73;;;16.20;87.10;;;;;;5093509;28;20171;-89
2023/08/22 04:12:18;;;;;;;11.38;9.90;;;16.10;87.10;;;;;;5093314;28;20190;-89
2023/08/22 04:14:44;;;;;;;11.20;10.13;;;16.10;87.10;;;;;;5092901;28;20191;-89
2023/08/22 04:17:09;;;;;;;10.88;10.07;;;16.20;87.10;;;;;;5094101;28;20183;-89
2023/08/22 04:19:35;;;;;;;11.25;10.27;;;16.30;87.10;;;;;;5092834;28;20202;-89
2023/08/22 04:22:00;;;;;;;11.30;10.20;;;16.30;86.90;;;;;;5092761;28;20285;-89
2023/08/22 04:24:26;;;;;;;9.98;9.27;;;16.30;86.70;;;;;;5092713;28;20191;-89
2023/08/22 04:26:51;;;;;;;16.40;10.57;;;16.30;86.40;;;;;;5092773;28;20193;-89
2023/08/22 04:29:17;;;;;;;10.32;9.65;;;16.20;86.20;;;;;;5091874;28;20650;-89
2023/08/22 04:31:43;;;;;;;11.27;10.27;;;16.30;86.50;;;;;;5092617;28;20226;-89
2023/08/22 04:34:08;;;;;;;10.30;9.40;;;16.20;86.40;;;;;;5093752;28;20708;-89
2023/08/22 04:36:34;;;;;;;10.75;9.95;;;16.20;86.60;;;;;;5092602;28;20170;-89
2023/08/22 04:38:59;;;;;;;22.65;21.00;;;16.30;86.70;;;;;;5093797;28;20182;-89
2023/08/22 04:41:25;;;;;;;23.95;22.20;;;16.40;86.70;;;;;;5093886;28;20544;-88
2023/08/22 04:43:50;;;;;;;22.95;21.48;;;16.40;86.60;;;;;;5092320;28;20200;-88
2023/08/22 04:46:16;;;;;;;12.05;10.85;;;16.50;86.60;;;;;;5092317;28;20186;-89
2023/08/22 04:48:41;;;;;;;11.55;10.80;;;16.50;86.60;;;;;;5093563;28;20642;-88
2023/08/22 04:51:07;;;;;;;21.05;19.70;;;16.50;86.60;;;;;;5092347;28;20178;-89
2023/08/22 04:53:32;;;;;;;21.38;19.85;;;16.40;86.50;;;;;;5092305;28;20228;-89
2023/08/22 04:55:58;;;;;;;22.45;20.73;;;16.40;86.60;;;;;;5092032;28;20214;-89
2023/08/22 04:58:23;;;;;;;11.85;10.75;;;16.50;86.60;;;;;;5093448;28;20253;-89
2023/08/22 05:00:49;;;;;;;14.05;12.85;;;16.50;86.60;;;;;;5093327;28;20292;-89
2023/08/22 05:03:15;;;;;;;12.63;11.70;;;16.50;86.70;;;;;;5092284;28;20642;-89
2023/08/22 05:05:40;;;;;;;12.52;11.52;;;16.50;86.70;;;;;;5092134;28;20247;-88
2023/08/22 05:08:06;;;;;;;13.48;12.05;;;16.50;86.60;;;;;;5092069;28;20257;-89
2023/08/22 05:10:32;;;;;;;12.52;11.43;;;16.50;86.60;;;;;;5093315;28;20170;-89
2023/08/22 05:12:58;;;;;;;13.65;12.23;;;16.50;86.60;;;;;;5092039;28;20167;-89
2023/08/22 05:15:23;;;;;;;12.57;11.57;;;16.50;86.60;;;;;;5092072;28;20186;-88
2023/08/22 05:17:49;;;;;;;12.85;11.85;;;16.60;86.70;;;;;;5093402;28;20674;-88
2023/08/22 05:20:14;;;;;;;12.27;11.18;;;16.50;86.60;;;;;;5092213;28;20650;-89
2023/08/22 05:22:40;;;;;;;13.38;12.27;;;16.50;86.50;;;;;;5091932;28;20678;-89
2023/08/22 05:25:06;;;;;;;11.85;11.02;;;16.50;86.30;;;;;;5091912;28;20191;-89
2023/08/22 05:27:31;;;;;;;13.45;11.07;;;16.50;86.20;;;;;;5091914;28;20261;-89
2023/08/22 05:29:57;;;;;;;12.52;11.45;;;16.40;85.70;;;;;;5091929;28;20171;-88
2023/08/22 05:32:22;;;;;;;12.77;11.77;;;16.50;85.40;;;;;;5092018;28;20170;-89
2023/08/22 05:34:48;;;;;;;12.70;11.75;;;16.50;85.20;;;;;;5091884;28;20194;-88
2023/08/22 05:37:13;;;;;;;12.38;11.40;;;16.50;85.20;;;;;;5091985;28;20572;-89
2023/08/22 05:39:39;;;;;;;12.35;11.25;;;16.40;85.40;;;;;;5091875;28;20570;-88
2023/08/22 05:42:05;;;;;;;11.95;10.90;;;16.30;85.60;;;;;;5096968;28;20209;-88
2023/08/22 05:44:32;;;;;;;11.52;10.57;;;16.30;85.90;;;;;;5095687;28;20221;-88
2023/08/22 05:46:58;;;;;;;11.65;10.60;;;16.30;86.20;;;;;;5097001;28;20642;-88
2023/08/22 05:49:23;;;;;;;11.85;10.75;;;16.30;86.20;;;;;;5095736;28;20224;-88
2023/08/22 05:51:49;;;;;;;12.05;10.90;;;16.20;86.10;;;;;;5095700;28;20175;-89
2023/08/22 05:54:15;;;;;;;12.70;11.48;;;16.30;85.90;;;;;;5095537;28;20186;-89
2023/08/22 05:56:40;;;;;;;12.85;11.75;;;16.30;85.60;;;;;;5095636;28;20208;-89
2023/08/22 05:59:06;;;;;;;12.93;11.63;;;16.50;85.30;;;;;;5095680;28;20304;-89
2023/08/22 06:01:31;;;;;;;12.10;11.02;;;16.60;85.10;;;;;;5096606;28;20738;-89
2023/08/22 06:03:57;;;;;;;12.68;11.10;;;16.70;84.80;;;;;;5095462;28;20270;-89
2023/08/22 06:06:22;;;;;;;13.55;11.90;;;16.70;84.60;;;;;;5096800;28;20277;-89
2023/08/22 06:08:48;;;;;;;13.00;11.82;;;16.80;84.30;;;;;;5096598;28;20221;-88
2023/08/22 06:11:13;;;;;;;12.65;10.98;;;16.90;84.10;;;;;;5095398;28;20182;-89
2023/08/22 06:13:39;;;;;;;22.33;20.70;;;17.00;84.20;;;;;;5096483;28;20167;-89
2023/08/22 06:16:04;;;;;;;25.05;22.80;;;17.10;83.90;;;;;;5095326;28;20195;-89
2023/08/22 06:18:30;;;;;;;13.10;12.10;;;17.20;83.90;;;;;;5095498;28;20170;-88
2023/08/22 06:20:59;;;;;;;13.57;12.43;;;17.20;83.40;;;;;;5096254;28;20209;-88
2023/08/22 06:23:26;;;;;;;23.33;21.33;;;17.30;82.70;;;;;;5095022;28;20520;-88
2023/08/22 06:25:51;;;;;;;22.52;20.13;;;17.40;82.30;;;;;;5096518;28;20198;-88
2023/08/22 06:28:17;;;;;;;23.67;22.02;;;17.50;81.90;;;;;;5096178;28;20184;-88
2023/08/22 06:30:43;;;;;;;13.48;12.35;;;17.50;81.60;;;;;;5095888;28;20533;-88
2023/08/22 06:33:08;;;;;;;15.05;13.75;;;17.70;81.80;;;;;;5096089;28;20173;-88
2023/08/22 06:35:34;;;;;;;15.13;13.75;;;17.70;80.70;;;;;;5096522;28;20559;-88
2023/08/22 06:37:59;;;;;;;14.48;13.50;;;17.80;81.20;;;;;;5095056;28;20194;-89
2023/08/22 06:40:25;;;;;;;15.30;14.15;;;17.80;80.70;;;;;;5094676;28;20607;-88
2023/08/22 06:42:50;;;;;;;14.02;13.02;;;17.90;80.80;;;;;;5094772;28;20285;-89
2023/08/22 06:45:17;;;;;;;13.32;12.27;;;17.90;80.80;;;;;;5095110;28;20205;-89
2023/08/22 06:47:48;;;;;;;15.52;13.95;;;18.10;80.70;;;;;;5094645;28;20198;-88
2023/08/22 06:50:14;;;;;;;14.90;13.63;;;18.10;80.40;;;;;;5094558;28;20546;-89
2023/08/22 06:52:39;;;;;;;16.98;15.25;;;18.20;80.90;;;;;;5093719;28;20175;-89
2023/08/22 06:55:05;;;;;;;16.65;14.55;;;18.30;79.70;;;;;;5094537;28;20236;-89
2023/08/22 06:57:31;;;;;;;17.35;15.13;;;18.40;79.70;;;;;;5094480;28;20179;-89
2023/08/22 06:59:56;;;;;;;17.50;15.73;;;18.40;79.50;;;;;;5094765;28;20713;-89
2023/08/22 07:02:22;;;;;;;15.82;14.52;;;18.50;78.30;;;;;;5094237;28;20198;-89
2023/08/22 07:04:48;;;;;;;14.70;13.40;;;18.70;78.70;;;;;;5094181;28;20193;-87
2023/08/22 07:07:13;;;;;;;15.20;14.10;;;18.70;78.60;;;;;;5095440;28;20665;-89
2023/08/22 07:09:39;;;;;;;16.15;14.85;;;18.70;79.10;;;;;;5095627;28;20178;-89
2023/08/22 07:12:04;;;;;;;15.63;14.20;;;18.80;78.70;;;;;;5094174;28;20652;-89
2023/08/22 07:14:30;;;;;;;16.23;14.63;;;18.90;78.20;;;;;;5094141;28;20203;-89
2023/08/22 07:16:55;;;;;;;16.20;14.93;;;19.00;77.90;;;;;;5094361;28;20206;-89
2023/08/22 07:19:21;;;;;;;16.98;15.48;;;19.00;77.30;;;;;;5094309;28;20177;-88
2023/08/22 07:21:47;;;;;;;15.35;14.05;;;19.20;77.00;;;;;;5094730;28;20697;-88
2023/08/22 07:24:14;;;;;;;16.88;15.57;;;19.30;76.80;;;;;;5094051;28;20166;-88
2023/08/22 07:26:40;;;;;;;17.13;15.40;;;19.30;76.40;;;;;;5095037;28;20162;-89
2023/08/22 07:29:05;;;;;;;18.75;16.83;;;19.50;76.40;;;;;;5094006;28;20253;-89
2023/08/22 07:31:31;;;;;;;19.48;16.13;;;19.60;75.40;;;;;;5093790;28;20629;-89
2023/08/22 07:33:56;;;;;;;17.70;16.17;;;19.60;74.80;;;;;;5093738;28;20179;-89
2023/08/22 07:36:22;;;;;;;17.33;15.90;;;19.60;75.20;;;;;;5094197;28;20199;-88
2023/08/22 07:38:47;;;;;;;15.73;14.43;;;19.60;75.50;;;;;;5094873;28;20657;-89
2023/08/22 07:41:13;;;;;;;19.67;16.23;;;19.70;75.30;;;;;;5094962;28;20202;-88
2023/08/22 07:43:38;;;;;;;16.27;15.00;;;19.80;75.20;;;;;;5094940;28;20163;-87
2023/08/22 07:46:04;;;;;;;18.08;16.58;;;19.90;73.40;;;;;;5093419;28;20232;-89
2023/08/22 07:48:31;;;;;;;16.50;15.10;;;20.00;74.50;;;;;;5093520;28;20171;-88
2023/08/22 07:50:57;;;;;;;19.50;17.98;;;20.10;73.60;;;;;;5094620;28;20673;-88
2023/08/22 07:53:22;;;;;;;18.67;17.00;;;20.20;70.70;;;;;;5093361;28;20175;-88
2023/08/22 07:55:48;;;;;;;17.73;16.52;;;20.30;73.00;;;;;;5093094;28;20214;-88
2023/08/22 07:58:15;;;;;;;17.98;16.13;;;20.40;72.20;;;;;;5094768;28;20175;-88
2023/08/22 08:00:41;;;;;;;18.52;16.90;;;20.50;70.90;;;;;;5093203;28;20688;-88
2023/08/22 08:03:06;;;;;;;17.98;16.58;;;20.50;71.90;;;;;;5093466;28;20175;-88
2023/08/22 08:05:33;;;;;;;18.20;16.63;;;20.60;72.30;;;;;;5092677;28;20252;-88
2023/08/22 08:07:58;;;;;;;20.73;19.00;;;20.80;71.60;;;;;;5093079;28;20171;-88
2023/08/22 08:10:24;;;;;;;28.80;26.80;;;20.80;71.10;;;;;;5094651;28;20548;-88
2023/08/22 08:12:50;;;;;;;32.35;30.00;;;20.80;70.60;;;;;;5094216;28;20216;-88
2023/08/22 08:15:15;;;;;;;17.42;16.13;;;20.80;70.30;;;;;;5094091;28;20649;-87
2023/08/22 08:17:41;;;;;;;18.15;16.75;;;20.80;71.00;;;;;;5094283;28;20186;-88
2023/08/22 08:20:10;;;;;;;19.15;17.60;;;21.10;72.30;;;;;;5094203;28;20546;-88
2023/08/22 08:22:36;;;;;;;17.95;16.48;;;21.10;69.80;;;;;;5092755;28;20587;-88
2023/08/22 08:25:03;;;;;;;18.30;16.92;;;21.20;69.90;;;;;;5092839;28;20186;-88
2023/08/22 08:27:28;;;;;;;19.45;17.63;;;21.20;70.40;;;;;;5092828;28;20270;-89
2023/08/22 08:29:54;;;;;;;19.90;17.77;;;21.30;70.60;;;;;;5096195;28;20206;-88
2023/08/22 08:32:19;;;;;;;19.17;16.73;;;21.40;69.80;;;;;;5094231;28;20216;-89
2023/08/22 08:34:45;;;;;;;18.52;16.80;;;21.70;71.20;;;;;;5095078;28;20194;-86
2023/08/22 08:37:10;;;;;;;18.25;16.48;;;21.60;68.70;;;;;;5092418;28;20543;-86
2023/08/22 08:39:36;;;;;;;18.35;16.85;;;21.80;69.30;;;;;;5092294;28;20208;-87
2023/08/22 08:42:12;;;;;;;19.95;18.05;;;21.70;69.60;;;;;;5092293;28;20222;-87
2023/08/22 08:44:38;;;;;;;19.48;17.70;;;21.80;69.40;;;;;;5093860;28;20538;-87
2023/08/22 08:47:05;;;;;;;18.25;16.75;;;21.80;68.20;;;;;;5093581;28;20174;-87
2023/08/22 08:49:32;;;;;;;19.63;18.02;;;21.80;68.10;;;;;;5093524;28;20167;-87
2023/08/22 08:52:05;;;;;;;20.33;18.42;;;21.90;68.50;;;;;;5093658;28;20170;-87
2023/08/22 08:54:31;;;;;;;20.00;18.48;;;21.90;69.20;;;;;;5093662;28;20193;-86
2023/08/22 08:56:57;;;;;;;21.92;19.77;;;21.90;68.00;;;;;;5093366;28;20158;-87
2023/08/22 08:59:23;;;;;;;20.33;18.35;;;21.70;67.40;;;;;;5092256;28;20174;-88
2023/08/22 09:01:50;;;;;;;19.77;18.08;;;21.70;68.60;;;;;;5093874;28;20198;-87
2023/08/22 09:04:15;;;;;;;19.70;18.00;;;21.70;68.40;;;;;;5094672;28;20193;-89
2023/08/22 09:06:44;;;;;;;20.08;18.20;;;21.70;68.80;;;;;;5101883;28;20705;-89
2023/08/22 09:09:12;;;;;;;20.02;17.90;;;21.70;69.50;;;;;;5101622;28;20182;-90
2023/08/22 09:11:45;;;;;;;19.25;17.75;;;21.70;70.30;;;;;;5098779;28;20205;-89
2023/08/22 09:14:11;;;;;;;19.77;18.17;;;21.90;70.50;;;;;;5100699;28;20592;-89
2023/08/22 09:16:37;;;;;;;19.27;17.30;;;22.20;70.40;;;;;;5101071;28;20171;-89
2023/08/22 09:19:03;;;;;;;17.80;16.40;;;22.60;71.10;;;;;;5098330;28;20661;-89
2023/08/22 09:21:31;;;;;;;21.50;17.38;;;22.70;70.80;;;;;;5098533;28;20269;-90
2023/08/22 09:24:10;;;;;;;18.27;16.73;;;22.70;70.10;;;;;;5097735;28;20214;-90
2023/08/22 09:26:36;;;;;;;19.67;17.80;;;23.00;71.30;;;;;;5098860;28;20638;-90
2023/08/22 09:29:06;;;;;;;21.08;16.70;;;23.20;69.70;;;;;;5099078;28;20171;-89
2023/08/22 09:31:34;;;;;;;20.80;18.38;;;23.10;68.50;;;;;;5097745;28;20245;-89
2023/08/22 09:34:09;;;;;;;21.50;19.60;;;23.00;68.90;;;;;;5098214;28;20237;-89
2023/08/22 09:36:44;;;;;;;19.85;18.45;;;22.90;69.30;;;;;;5097195;28;20227;-90
2023/08/22 09:39:12;;;;;;;21.40;19.33;;;22.90;69.90;;;;;;5099299;28;20177;-90
2023/08/22 09:41:38;;;;;;;20.55;18.95;;;23.10;68.60;;;;;;5097502;28;20205;-90
2023/08/22 09:44:06;;;;;;;20.63;18.98;;;23.40;69.60;;;;;;5098447;28;20171;-90
2023/08/22 09:46:31;;;;;;;29.40;26.98;;;23.60;67.90;;;;;;5097883;28;20167;-90
2023/08/22 09:49:00;;;;;;;31.05;28.50;;;23.30;67.50;;;;;;5098614;28;20170;-90
2023/08/22 09:51:25;;;;;;;34.38;31.67;;;23.30;67.10;;;;;;5096950;28;20175;-90
2023/08/22 09:53:59;;;;;;;22.17;20.02;;;23.30;67.30;;;;;;5096860;28;20170;-90
2023/08/22 09:56:25;;;;;;;21.95;20.10;;;23.20;68.30;;;;;;5098024;28;20206;-90
2023/08/22 09:58:52;;;;;;;20.83;19.15;;;23.50;67.40;;;;;;5098479;28;20227;-90
2023/08/22 10:01:19;;;;;;;23.27;19.92;;;23.70;68.10;;;;;;5096901;28;20549;-90
2023/08/22 10:03:46;;;;;;;21.45;19.42;;;23.90;67.60;;;;;;5097476;28;20174;-90
2023/08/22 10:06:13;;;;;;;21.50;19.80;;;23.90;68.10;;;;;;5097397;28;20187;-90
2023/08/22 10:08:45;;;;;;;22.10;20.10;;;23.70;67.20;;;;;;5097019;28;20180;-90
2023/08/22 10:11:16;;;;;;;21.50;19.55;;;23.50;68.00;;;;;;5099245;28;20182;-90
2023/08/22 10:13:43;;;;;;;23.17;20.98;;;23.70;68.40;;;;;;5097185;28;20181;-90
2023/08/22 10:16:08;;;;;;;22.27;19.63;;;23.70;66.90;;;;;;5097979;28;20203;-90
2023/08/22 10:18:34;;;;;;;22.52;20.63;;;23.80;69.60;;;;;;5097006;28;20187;-90
2023/08/22 10:21:02;;;;;;;22.98;20.80;;;24.10;68.40;;;;;;5099029;28;20256;-89
2023/08/22 10:23:58;;;;;;;22.67;20.35;;;24.10;67.80;;;;;;5098843;28;20179;-90
2023/08/22 10:26:26;;;;;;;23.30;20.98;;;24.30;67.30;;;;;;5097258;28;20191;-90
2023/08/22 10:29:15;;;;;;;20.92;19.05;;;24.30;68.30;;;;;;5101098;28;20198;-90
2023/08/22 10:31:59;;;;;;;21.40;19.50;;;24.30;66.60;;;;;;5101976;28;20206;-90
2023/08/22 10:34:25;;;;;;;21.70;20.02;;;24.40;67.10;;;;;;5102828;28;20205;-90
2023/08/22 10:37:02;;;;;;;22.08;19.75;;;24.70;67.50;;;;;;5103231;28;20170;-90
2023/08/22 10:39:42;;;;;;;22.25;20.30;;;24.80;68.90;;;;;;5100991;28;20155;-90
2023/08/22 10:42:19;;;;;;;22.05;20.10;;;25.00;66.10;;;;;;5101281;28;20198;-90
2023/08/22 10:44:52;;;;;;;23.35;21.02;;;24.90;65.70;;;;;;5102468;28;20320;-90
2023/08/22 10:47:23;;;;;;;23.20;20.90;;;25.30;66.50;;;;;;5101652;28;20634;-90
2023/08/22 10:49:55;;;;;;;23.13;20.88;;;24.70;63.20;;;;;;5100747;28;20181;-90
2023/08/22 10:52:28;;;;;;;21.52;19.38;;;24.20;65.10;;;;;;5102157;28;20219;-90
2023/08/22 10:55:03;;;;;;;22.33;20.63;;;24.60;68.20;;;;;;5102848;28;20676;-90
2023/08/22 10:57:30;;;;;;;22.40;20.33;;;25.00;65.70;;;;;;5102133;28;20246;-90
2023/08/22 11:00:12;;;;;;;20.88;19.27;;;25.10;65.40;;;;;;5101948;28;20195;-90
2023/08/22 11:02:39;;;;;;;22.08;20.17;;;25.20;63.20;;;;;;5100610;28;20190;-90
2023/08/22 11:05:10;;;;;;;20.90;19.23;;;25.00;65.10;;;;;;5103111;28;20190;-90
2023/08/22 11:07:36;;;;;;;22.45;20.45;;;25.60;65.80;;;;;;5102126;28;20223;-90
2023/08/22 11:10:01;;;;;;;22.70;20.33;;;25.20;64.00;;;;;;5101500;28;20163;-90
2023/08/22 11:12:28;;;;;;;22.77;20.70;;;25.50;64.20;;;;;;5101592;28;20673;-90
2023/08/22 11:14:55;;;;;;;21.90;19.95;;;25.90;64.40;;;;;;5101843;28;20193;-90
2023/08/22 11:17:22;;;;;;;22.52;20.35;;;26.20;63.50;;;;;;5100887;28;20249;-90
2023/08/22 11:19:49;;;;;;;21.83;19.73;;;26.10;63.70;;;;;;5100169;28;20628;-90
2023/08/22 11:22:15;;;;;;;21.45;19.55;;;25.80;63.20;;;;;;5101835;28;20277;-90
2023/08/22 11:24:49;;;;;;;21.70;19.73;;;26.20;62.60;;;;;;5101165;28;20215;-90
2023/08/22 11:27:15;;;;;;;28.67;26.20;;;26.60;61.60;;;;;;5101514;28;20638;-90
2023/08/22 11:29:49;;;;;;;29.40;27.00;;;26.70;61.70;;;;;;5100350;28;20189;-90
2023/08/22 11:32:41;;;;;;;29.95;27.23;;;26.70;60.90;;;;;;5102878;28;20161;-90
2023/08/22 11:35:08;;;;;;;20.50;18.85;;;26.30;61.60;;;;;;5101214;28;20198;-90
2023/08/22 11:37:34;;;;;;;20.67;18.63;;;26.10;61.50;;;;;;5101373;28;20206;-90
2023/08/22 11:40:00;;;;;;;20.60;18.70;;;26.20;61.40;;;;;;5101186;28;20178;-90
2023/08/22 11:42:32;;;;;;;19.73;18.17;;;25.60;59.60;;;;;;5100924;28;20202;-90
2023/08/22 11:45:04;;;;;;;20.20;18.52;;;25.50;60.60;;;;;;5099384;28;20195;-90
2023/08/22 11:47:44;;;;;;;19.85;18.17;;;26.00;62.00;;;;;;5101477;28;20177;-90
2023/08/22 11:50:16;;;;;;;20.38;18.52;;;25.70;59.80;;;;;;5099678;28;20611;-90
2023/08/22 11:52:42;;;;;;;19.70;17.83;;;26.10;59.70;;;;;;5100155;28;20175;-90
2023/08/22 11:55:10;;;;;;;19.80;18.20;;;26.10;57.40;;;;;;5101937;28;20210;-90
2023/08/22 11:57:38;;;;;;;19.05;17.52;;;26.30;58.70;;;;;;5099577;28;20182;-90
2023/08/22 12:00:06;;;;;;;18.92;17.50;;;26.80;57.50;;;;;;5100769;28;20177;-90
2023/08/22 12:02:32;;;;;;;18.35;16.92;;;26.70;56.50;;;;;;5100239;28;20205;-90
2023/08/22 12:04:58;;;;;;;19.17;17.58;;;26.80;53.70;;;;;;5101818;28;20194;-90
2023/08/22 12:07:23;;;;;;;18.70;17.20;;;27.20;52.70;;;;;;5099695;28;20701;-90
2023/08/22 12:10:00;;;;;;;17.95;16.52;;;27.00;52.80;;;;;;5100026;28;20171;-90
2023/08/22 12:12:26;;;;;;;18.42;16.98;;;26.40;53.50;;;;;;5099948;28;20223;-90
2023/08/22 12:14:52;;;;;;;18.88;17.08;;;26.60;55.70;;;;;;5099105;28;20194;-90
2023/08/22 12:17:18;;;;;;;18.13;16.75;;;26.80;54.90;;;;;;5100947;28;20198;-90
2023/08/22 12:19:44;;;;;;;18.77;17.15;;;27.10;54.60;;;;;;5098840;28;20170;-90
2023/08/22 12:22:10;;;;;;;18.00;16.70;;;27.50;53.70;;;;;;5100767;28;20563;-90
2023/08/22 12:24:36;;;;;;;18.05;16.75;;;27.60;53.20;;;;;;5102314;28;20323;-89
2023/08/22 12:27:01;;;;;;;18.52;16.98;;;27.30;54.40;;;;;;5099602;28;20200;-90
2023/08/22 12:29:27;;;;;;;18.13;16.77;;;27.40;54.60;;;;;;5099854;28;20163;-90